sensor_id;sensor_type;location;lat;lon;timestamp;P1;durP1;ratioP1;P2;durP2;ratioP2
23474;SDS011;11910;52.086;21.066;2024-02-26T00:01:26;30.55;;;17.45;;
23474;SDS011;11910;52.086;21.066;2024-02-26T00:03:52;24.75;;;16.10;;
23474;SDS011;11910;52.086;21.066;2024-02-26T00:06:19;25.42;;;16.85;;
23474;SDS011;11910;52.086;21.066;2024-02-26T00:08:44;30.35;;;19.17;;
23474;SDS011;11910;52.086;21.066;2024-02-26T00:11:11;32.42;;;19.88;;
23474;SDS011;11910;52.086;21.066;2024-02-26T00:13:37;30.60;;;19.27;;
23474;SDS011;11910;52.086;21.066;2024-02-26T00:16:03;31.60;;;19.42;;
23474;SDS011;11910;52.086;21.066;2024-02-26T00:18:29;30.92;;;19.80;;
23474;SDS011;11910;52.086;21.066;2024-02-26T00:20:55;27.70;;;18.50;;
23474;SDS011;11910;52.086;21.066;2024-02-26T00:23:21;26.60;;;17.75;;
23474;SDS011;11910;52.086;21.066;2024-02-26T00:25:48;33.83;;;18.55;;
23474;SDS011;11910;52.086;21.066;2024-02-26T00:28:14;26.05;;;17.08;;
23474;SDS011;11910;52.086;21.066;2024-02-26T00:30:40;28.88;;;18.55;;
23474;SDS011;11910;52.086;21.066;2024-02-26T00:33:05;24.88;;;16.55;;
23474;SDS011;11910;52.086;21.066;2024-02-26T00:35:31;26.67;;;17.17;;
23474;SDS011;11910;52.086;21.066;2024-02-26T00:37:57;33.58;;;18.15;;
23474;SDS011;11910;52.086;21.066;2024-02-26T00:40:23;29.30;;;17.33;;
23474;SDS011;11910;52.086;21.066;2024-02-26T00:42:49;27.83;;;17.52;;
23474;SDS011;11910;52.086;21.066;2024-02-26T00:45:15;26.85;;;17.83;;
23474;SDS011;11910;52.086;21.066;2024-02-26T00:47:41;24.85;;;16.75;;
23474;SDS011;11910;52.086;21.066;2024-02-26T00:50:07;24.58;;;17.10;;
23474;SDS011;11910;52.086;21.066;2024-02-26T00:52:34;30.58;;;19.35;;
23474;SDS011;11910;52.086;21.066;2024-02-26T00:54:59;27.40;;;18.65;;
23474;SDS011;11910;52.086;21.066;2024-02-26T00:57:26;29.35;;;18.98;;
23474;SDS011;11910;52.086;21.066;2024-02-26T00:59:52;27.63;;;18.38;;
23474;SDS011;11910;52.086;21.066;2024-02-26T01:02:20;32.05;;;19.40;;
23474;SDS011;11910;52.086;21.066;2024-02-26T01:04:45;29.85;;;18.15;;
23474;SDS011;11910;52.086;21.066;2024-02-26T01:07:11;29.45;;;18.80;;
23474;SDS011;11910;52.086;21.066;2024-02-26T01:09:37;30.92;;;20.50;;
23474;SDS011;11910;52.086;21.066;2024-02-26T01:12:03;27.58;;;18.48;;
23474;SDS011;11910;52.086;21.066;2024-02-26T01:14:28;31.45;;;19.35;;
23474;SDS011;11910;52.086;21.066;2024-02-26T01:16:54;28.63;;;19.17;;
23474;SDS011;11910;52.086;21.066;2024-02-26T01:19:20;25.10;;;17.23;;
23474;SDS011;11910;52.086;21.066;2024-02-26T01:21:46;26.30;;;18.48;;
23474;SDS011;11910;52.086;21.066;2024-02-26T01:24:12;27.80;;;18.73;;
23474;SDS011;11910;52.086;21.066;2024-02-26T01:26:37;25.40;;;16.48;;
23474;SDS011;11910;52.086;21.066;2024-02-26T01:29:04;24.98;;;17.50;;
23474;SDS011;11910;52.086;21.066;2024-02-26T01:31:29;28.20;;;19.33;;
23474;SDS011;11910;52.086;21.066;2024-02-26T01:33:55;29.45;;;19.80;;
23474;SDS011;11910;52.086;21.066;2024-02-26T01:36:21;29.60;;;19.00;;
23474;SDS011;11910;52.086;21.066;2024-02-26T01:38:50;30.50;;;19.42;;
23474;SDS011;11910;52.086;21.066;2024-02-26T01:41:16;29.02;;;19.60;;
23474;SDS011;11910;52.086;21.066;2024-02-26T01:43:42;24.73;;;16.38;;
23474;SDS011;11910;52.086;21.066;2024-02-26T01:46:09;30.45;;;19.58;;
23474;SDS011;11910;52.086;21.066;2024-02-26T01:48:41;24.95;;;16.50;;
23474;SDS011;11910;52.086;21.066;2024-02-26T01:51:09;26.20;;;17.00;;
23474;SDS011;11910;52.086;21.066;2024-02-26T01:53:37;27.90;;;18.10;;
23474;SDS011;11910;52.086;21.066;2024-02-26T01:56:03;27.95;;;18.13;;
23474;SDS011;11910;52.086;21.066;2024-02-26T01:58:29;27.73;;;19.05;;
23474;SDS011;11910;52.086;21.066;2024-02-26T02:00:56;31.73;;;19.67;;
23474;SDS011;11910;52.086;21.066;2024-02-26T02:03:22;24.73;;;16.13;;
23474;SDS011;11910;52.086;21.066;2024-02-26T02:05:49;28.90;;;19.60;;
23474;SDS011;11910;52.086;21.066;2024-02-26T02:08:14;30.08;;;19.70;;
23474;SDS011;11910;52.086;21.066;2024-02-26T02:10:43;26.85;;;18.13;;
23474;SDS011;11910;52.086;21.066;2024-02-26T02:13:10;26.98;;;18.83;;
23474;SDS011;11910;52.086;21.066;2024-02-26T02:15:35;28.90;;;19.35;;
23474;SDS011;11910;52.086;21.066;2024-02-26T02:18:04;25.90;;;17.25;;
23474;SDS011;11910;52.086;21.066;2024-02-26T02:20:33;27.10;;;18.50;;
23474;SDS011;11910;52.086;21.066;2024-02-26T02:23:00;26.17;;;18.60;;
23474;SDS011;11910;52.086;21.066;2024-02-26T02:25:26;25.58;;;17.55;;
23474;SDS011;11910;52.086;21.066;2024-02-26T02:27:51;23.65;;;14.60;;
23474;SDS011;11910;52.086;21.066;2024-02-26T02:30:19;25.52;;;16.83;;
23474;SDS011;11910;52.086;21.066;2024-02-26T02:32:47;26.85;;;17.90;;
23474;SDS011;11910;52.086;21.066;2024-02-26T02:35:14;25.80;;;17.08;;
23474;SDS011;11910;52.086;21.066;2024-02-26T02:37:40;27.10;;;18.67;;
23474;SDS011;11910;52.086;21.066;2024-02-26T02:40:06;29.35;;;18.58;;
23474;SDS011;11910;52.086;21.066;2024-02-26T02:42:32;25.10;;;18.20;;
23474;SDS011;11910;52.086;21.066;2024-02-26T02:44:57;26.73;;;18.95;;
23474;SDS011;11910;52.086;21.066;2024-02-26T02:47:23;28.88;;;19.42;;
23474;SDS011;11910;52.086;21.066;2024-02-26T02:49:49;23.70;;;16.10;;
23474;SDS011;11910;52.086;21.066;2024-02-26T02:52:15;29.98;;;19.48;;
23474;SDS011;11910;52.086;21.066;2024-02-26T02:54:40;27.20;;;17.60;;
23474;SDS011;11910;52.086;21.066;2024-02-26T02:57:07;21.08;;;15.15;;
23474;SDS011;11910;52.086;21.066;2024-02-26T02:59:34;25.02;;;16.77;;
23474;SDS011;11910;52.086;21.066;2024-02-26T03:02:00;22.80;;;15.55;;
23474;SDS011;11910;52.086;21.066;2024-02-26T03:04:26;26.92;;;19.05;;
23474;SDS011;11910;52.086;21.066;2024-02-26T03:06:51;28.33;;;18.63;;
23474;SDS011;11910;52.086;21.066;2024-02-26T03:09:17;25.30;;;17.55;;
23474;SDS011;11910;52.086;21.066;2024-02-26T03:11:43;26.40;;;17.65;;
23474;SDS011;11910;52.086;21.066;2024-02-26T03:14:09;29.80;;;18.67;;
23474;SDS011;11910;52.086;21.066;2024-02-26T03:16:34;26.08;;;17.65;;
23474;SDS011;11910;52.086;21.066;2024-02-26T03:19:00;23.50;;;17.05;;
23474;SDS011;11910;52.086;21.066;2024-02-26T03:21:28;26.05;;;17.85;;
23474;SDS011;11910;52.086;21.066;2024-02-26T03:23:54;27.92;;;18.15;;
23474;SDS011;11910;52.086;21.066;2024-02-26T03:26:20;27.33;;;17.83;;
23474;SDS011;11910;52.086;21.066;2024-02-26T03:28:46;23.05;;;16.50;;
23474;SDS011;11910;52.086;21.066;2024-02-26T03:31:12;22.95;;;15.35;;
23474;SDS011;11910;52.086;21.066;2024-02-26T03:33:38;23.13;;;16.55;;
23474;SDS011;11910;52.086;21.066;2024-02-26T03:36:04;29.05;;;18.00;;
23474;SDS011;11910;52.086;21.066;2024-02-26T03:38:30;24.75;;;16.35;;
23474;SDS011;11910;52.086;21.066;2024-02-26T03:40:56;23.08;;;16.40;;
23474;SDS011;11910;52.086;21.066;2024-02-26T03:43:22;26.30;;;17.85;;
23474;SDS011;11910;52.086;21.066;2024-02-26T03:45:47;25.13;;;16.30;;
23474;SDS011;11910;52.086;21.066;2024-02-26T03:48:13;24.17;;;16.35;;
23474;SDS011;11910;52.086;21.066;2024-02-26T03:50:39;24.67;;;16.63;;
23474;SDS011;11910;52.086;21.066;2024-02-26T03:53:04;23.65;;;16.08;;
23474;SDS011;11910;52.086;21.066;2024-02-26T03:55:30;23.05;;;16.33;;
23474;SDS011;11910;52.086;21.066;2024-02-26T03:57:56;24.25;;;16.35;;
23474;SDS011;11910;52.086;21.066;2024-02-26T04:00:22;20.95;;;14.77;;
23474;SDS011;11910;52.086;21.066;2024-02-26T04:02:47;21.98;;;14.65;;
23474;SDS011;11910;52.086;21.066;2024-02-26T04:05:13;24.60;;;16.13;;
23474;SDS011;11910;52.086;21.066;2024-02-26T04:07:42;28.13;;;16.33;;
23474;SDS011;11910;52.086;21.066;2024-02-26T04:10:08;22.35;;;15.60;;
23474;SDS011;11910;52.086;21.066;2024-02-26T04:12:35;25.70;;;16.75;;
23474;SDS011;11910;52.086;21.066;2024-02-26T04:15:00;26.63;;;15.98;;
23474;SDS011;11910;52.086;21.066;2024-02-26T04:17:26;22.45;;;15.85;;
23474;SDS011;11910;52.086;21.066;2024-02-26T04:19:52;25.15;;;17.10;;
23474;SDS011;11910;52.086;21.066;2024-02-26T04:22:18;22.50;;;16.33;;
23474;SDS011;11910;52.086;21.066;2024-02-26T04:24:43;28.92;;;18.58;;
23474;SDS011;11910;52.086;21.066;2024-02-26T04:27:09;24.27;;;17.00;;
23474;SDS011;11910;52.086;21.066;2024-02-26T04:29:35;23.50;;;17.02;;
23474;SDS011;11910;52.086;21.066;2024-02-26T04:32:00;24.77;;;16.60;;
23474;SDS011;11910;52.086;21.066;2024-02-26T04:34:26;22.40;;;16.00;;
23474;SDS011;11910;52.086;21.066;2024-02-26T04:36:52;23.10;;;16.30;;
23474;SDS011;11910;52.086;21.066;2024-02-26T04:39:17;24.30;;;16.17;;
23474;SDS011;11910;52.086;21.066;2024-02-26T04:41:43;27.10;;;16.92;;
23474;SDS011;11910;52.086;21.066;2024-02-26T04:44:09;19.67;;;13.30;;
23474;SDS011;11910;52.086;21.066;2024-02-26T04:46:35;27.50;;;17.73;;
23474;SDS011;11910;52.086;21.066;2024-02-26T04:49:00;27.70;;;18.08;;
23474;SDS011;11910;52.086;21.066;2024-02-26T04:51:26;23.95;;;17.15;;
23474;SDS011;11910;52.086;21.066;2024-02-26T04:53:52;28.88;;;18.38;;
23474;SDS011;11910;52.086;21.066;2024-02-26T04:56:19;29.88;;;18.35;;
23474;SDS011;11910;52.086;21.066;2024-02-26T04:58:47;25.92;;;18.13;;
23474;SDS011;11910;52.086;21.066;2024-02-26T05:01:13;22.67;;;15.20;;
23474;SDS011;11910;52.086;21.066;2024-02-26T05:03:41;26.58;;;17.30;;
23474;SDS011;11910;52.086;21.066;2024-02-26T05:06:07;27.92;;;18.35;;
23474;SDS011;11910;52.086;21.066;2024-02-26T05:08:34;28.08;;;18.27;;
23474;SDS011;11910;52.086;21.066;2024-02-26T05:11:01;26.08;;;17.60;;
23474;SDS011;11910;52.086;21.066;2024-02-26T05:13:28;25.33;;;16.83;;
23474;SDS011;11910;52.086;21.066;2024-02-26T05:15:54;27.88;;;18.15;;
23474;SDS011;11910;52.086;21.066;2024-02-26T05:18:20;27.48;;;16.85;;
23474;SDS011;11910;52.086;21.066;2024-02-26T05:20:47;26.38;;;16.50;;
23474;SDS011;11910;52.086;21.066;2024-02-26T05:23:12;25.88;;;17.55;;
23474;SDS011;11910;52.086;21.066;2024-02-26T05:25:38;29.73;;;19.48;;
23474;SDS011;11910;52.086;21.066;2024-02-26T05:28:04;25.35;;;17.00;;
23474;SDS011;11910;52.086;21.066;2024-02-26T05:30:30;25.63;;;17.25;;
23474;SDS011;11910;52.086;21.066;2024-02-26T05:32:56;31.33;;;19.40;;
23474;SDS011;11910;52.086;21.066;2024-02-26T05:35:21;29.88;;;19.50;;
23474;SDS011;11910;52.086;21.066;2024-02-26T05:37:47;28.65;;;19.08;;
23474;SDS011;11910;52.086;21.066;2024-02-26T05:40:13;28.00;;;19.27;;
23474;SDS011;11910;52.086;21.066;2024-02-26T05:42:39;30.45;;;19.52;;
23474;SDS011;11910;52.086;21.066;2024-02-26T05:45:05;28.13;;;18.63;;
23474;SDS011;11910;52.086;21.066;2024-02-26T05:47:32;27.63;;;17.42;;
23474;SDS011;11910;52.086;21.066;2024-02-26T05:49:58;28.45;;;18.30;;
23474;SDS011;11910;52.086;21.066;2024-02-26T05:52:25;30.10;;;18.40;;
23474;SDS011;11910;52.086;21.066;2024-02-26T05:54:52;28.08;;;17.98;;
23474;SDS011;11910;52.086;21.066;2024-02-26T05:57:18;29.15;;;19.58;;
23474;SDS011;11910;52.086;21.066;2024-02-26T05:59:44;30.88;;;19.15;;
23474;SDS011;11910;52.086;21.066;2024-02-26T06:02:10;30.08;;;19.58;;
23474;SDS011;11910;52.086;21.066;2024-02-26T06:04:36;28.08;;;18.98;;
23474;SDS011;11910;52.086;21.066;2024-02-26T06:07:02;28.42;;;18.55;;
23474;SDS011;11910;52.086;21.066;2024-02-26T06:09:27;27.02;;;17.95;;
23474;SDS011;11910;52.086;21.066;2024-02-26T06:11:53;25.38;;;16.65;;
23474;SDS011;11910;52.086;21.066;2024-02-26T06:14:19;27.80;;;18.08;;
23474;SDS011;11910;52.086;21.066;2024-02-26T06:16:45;26.95;;;18.02;;
23474;SDS011;11910;52.086;21.066;2024-02-26T06:19:11;27.90;;;18.67;;
23474;SDS011;11910;52.086;21.066;2024-02-26T06:21:37;33.63;;;19.23;;
23474;SDS011;11910;52.086;21.066;2024-02-26T06:24:03;31.88;;;20.05;;
23474;SDS011;11910;52.086;21.066;2024-02-26T06:26:29;31.42;;;20.50;;
23474;SDS011;11910;52.086;21.066;2024-02-26T06:28:55;31.70;;;20.52;;
23474;SDS011;11910;52.086;21.066;2024-02-26T06:31:24;28.63;;;19.33;;
23474;SDS011;11910;52.086;21.066;2024-02-26T06:33:52;32.17;;;22.30;;
23474;SDS011;11910;52.086;21.066;2024-02-26T06:36:18;42.55;;;25.60;;
23474;SDS011;11910;52.086;21.066;2024-02-26T06:38:44;38.17;;;22.90;;
23474;SDS011;11910;52.086;21.066;2024-02-26T06:41:10;37.30;;;23.10;;
23474;SDS011;11910;52.086;21.066;2024-02-26T06:43:36;32.80;;;23.17;;
23474;SDS011;11910;52.086;21.066;2024-02-26T06:46:02;43.38;;;25.10;;
23474;SDS011;11910;52.086;21.066;2024-02-26T06:48:28;38.75;;;24.45;;
23474;SDS011;11910;52.086;21.066;2024-02-26T06:50:53;35.33;;;22.77;;
23474;SDS011;11910;52.086;21.066;2024-02-26T06:53:19;37.22;;;23.67;;
23474;SDS011;11910;52.086;21.066;2024-02-26T06:55:45;43.22;;;23.75;;
23474;SDS011;11910;52.086;21.066;2024-02-26T06:58:11;48.13;;;25.70;;
23474;SDS011;11910;52.086;21.066;2024-02-26T07:00:36;39.40;;;25.77;;
23474;SDS011;11910;52.086;21.066;2024-02-26T07:03:02;37.53;;;25.45;;
23474;SDS011;11910;52.086;21.066;2024-02-26T07:05:28;37.63;;;23.15;;
23474;SDS011;11910;52.086;21.066;2024-02-26T07:07:54;33.30;;;23.75;;
23474;SDS011;11910;52.086;21.066;2024-02-26T07:10:19;36.50;;;24.20;;
23474;SDS011;11910;52.086;21.066;2024-02-26T07:12:46;41.60;;;28.27;;
23474;SDS011;11910;52.086;21.066;2024-02-26T07:15:12;51.10;;;33.67;;
23474;SDS011;11910;52.086;21.066;2024-02-26T07:17:37;51.05;;;33.55;;
23474;SDS011;11910;52.086;21.066;2024-02-26T07:20:06;51.63;;;34.58;;
23474;SDS011;11910;52.086;21.066;2024-02-26T07:22:34;44.15;;;29.38;;
23474;SDS011;11910;52.086;21.066;2024-02-26T07:25:00;42.00;;;29.90;;
23474;SDS011;11910;52.086;21.066;2024-02-26T07:27:26;35.47;;;26.33;;
23474;SDS011;11910;52.086;21.066;2024-02-26T07:29:51;30.52;;;23.10;;
23474;SDS011;11910;52.086;21.066;2024-02-26T07:32:17;32.00;;;24.13;;
23474;SDS011;11910;52.086;21.066;2024-02-26T07:34:43;30.35;;;23.42;;
23474;SDS011;11910;52.086;21.066;2024-02-26T07:37:09;31.23;;;23.05;;
23474;SDS011;11910;52.086;21.066;2024-02-26T07:39:38;33.08;;;22.77;;
23474;SDS011;11910;52.086;21.066;2024-02-26T07:42:04;28.60;;;22.25;;
23474;SDS011;11910;52.086;21.066;2024-02-26T07:44:30;28.90;;;21.80;;
23474;SDS011;11910;52.086;21.066;2024-02-26T07:46:55;30.00;;;21.40;;
23474;SDS011;11910;52.086;21.066;2024-02-26T07:49:21;30.25;;;22.30;;
23474;SDS011;11910;52.086;21.066;2024-02-26T07:51:47;26.65;;;20.77;;
23474;SDS011;11910;52.086;21.066;2024-02-26T07:54:12;31.20;;;21.83;;
23474;SDS011;11910;52.086;21.066;2024-02-26T07:56:38;28.33;;;21.08;;
23474;SDS011;11910;52.086;21.066;2024-02-26T07:59:04;25.33;;;19.52;;
23474;SDS011;11910;52.086;21.066;2024-02-26T08:01:29;24.88;;;19.75;;
23474;SDS011;11910;52.086;21.066;2024-02-26T08:03:55;25.33;;;19.45;;
23474;SDS011;11910;52.086;21.066;2024-02-26T08:06:21;23.15;;;17.85;;
23474;SDS011;11910;52.086;21.066;2024-02-26T08:08:47;21.67;;;17.88;;
23474;SDS011;11910;52.086;21.066;2024-02-26T08:11:14;22.50;;;17.15;;
23474;SDS011;11910;52.086;21.066;2024-02-26T08:13:41;22.88;;;17.88;;
23474;SDS011;11910;52.086;21.066;2024-02-26T08:16:06;22.65;;;17.75;;
23474;SDS011;11910;52.086;21.066;2024-02-26T08:18:35;21.98;;;16.88;;
23474;SDS011;11910;52.086;21.066;2024-02-26T08:21:01;18.95;;;16.83;;
23474;SDS011;11910;52.086;21.066;2024-02-26T08:23:27;20.00;;;17.15;;
23474;SDS011;11910;52.086;21.066;2024-02-26T08:25:54;19.67;;;15.68;;
23474;SDS011;11910;52.086;21.066;2024-02-26T08:28:19;18.92;;;16.00;;
23474;SDS011;11910;52.086;21.066;2024-02-26T08:30:45;18.15;;;15.25;;
23474;SDS011;11910;52.086;21.066;2024-02-26T08:33:11;18.98;;;15.60;;
23474;SDS011;11910;52.086;21.066;2024-02-26T08:35:36;18.67;;;15.55;;
23474;SDS011;11910;52.086;21.066;2024-02-26T08:38:02;20.23;;;15.75;;
23474;SDS011;11910;52.086;21.066;2024-02-26T08:40:29;20.23;;;16.55;;
23474;SDS011;11910;52.086;21.066;2024-02-26T08:42:55;20.58;;;16.42;;
23474;SDS011;11910;52.086;21.066;2024-02-26T08:45:20;19.35;;;16.33;;
23474;SDS011;11910;52.086;21.066;2024-02-26T08:47:46;18.70;;;16.42;;
23474;SDS011;11910;52.086;21.066;2024-02-26T08:50:15;17.40;;;15.18;;
23474;SDS011;11910;52.086;21.066;2024-02-26T08:52:41;17.88;;;15.35;;
23474;SDS011;11910;52.086;21.066;2024-02-26T08:55:07;19.27;;;16.10;;
23474;SDS011;11910;52.086;21.066;2024-02-26T08:57:34;19.52;;;16.17;;
23474;SDS011;11910;52.086;21.066;2024-02-26T09:00:00;18.88;;;16.02;;
23474;SDS011;11910;52.086;21.066;2024-02-26T09:02:26;21.48;;;17.50;;
23474;SDS011;11910;52.086;21.066;2024-02-26T09:04:52;20.65;;;17.10;;
23474;SDS011;11910;52.086;21.066;2024-02-26T09:07:20;18.80;;;16.65;;
23474;SDS011;11910;52.086;21.066;2024-02-26T09:09:46;20.40;;;16.75;;
23474;SDS011;11910;52.086;21.066;2024-02-26T09:12:12;20.73;;;17.63;;
23474;SDS011;11910;52.086;21.066;2024-02-26T09:14:38;19.80;;;17.17;;
23474;SDS011;11910;52.086;21.066;2024-02-26T09:17:03;19.98;;;16.55;;
23474;SDS011;11910;52.086;21.066;2024-02-26T09:19:30;19.90;;;16.38;;
23474;SDS011;11910;52.086;21.066;2024-02-26T09:21:56;19.30;;;16.13;;
23474;SDS011;11910;52.086;21.066;2024-02-26T09:24:23;18.65;;;16.13;;
23474;SDS011;11910;52.086;21.066;2024-02-26T09:26:49;19.60;;;16.90;;
23474;SDS011;11910;52.086;21.066;2024-02-26T09:29:17;19.52;;;16.48;;
23474;SDS011;11910;52.086;21.066;2024-02-26T09:31:42;20.38;;;16.60;;
23474;SDS011;11910;52.086;21.066;2024-02-26T09:34:12;21.17;;;17.65;;
23474;SDS011;11910;52.086;21.066;2024-02-26T09:36:38;19.38;;;16.95;;
23474;SDS011;11910;52.086;21.066;2024-02-26T09:39:03;20.95;;;18.00;;
23474;SDS011;11910;52.086;21.066;2024-02-26T09:41:30;19.63;;;16.55;;
23474;SDS011;11910;52.086;21.066;2024-02-26T09:43:57;19.15;;;16.90;;
23474;SDS011;11910;52.086;21.066;2024-02-26T09:46:25;19.98;;;17.33;;
23474;SDS011;11910;52.086;21.066;2024-02-26T09:48:50;19.30;;;17.25;;
23474;SDS011;11910;52.086;21.066;2024-02-26T09:51:16;19.92;;;16.75;;
23474;SDS011;11910;52.086;21.066;2024-02-26T09:53:43;20.70;;;17.55;;
23474;SDS011;11910;52.086;21.066;2024-02-26T09:56:11;18.40;;;16.33;;
23474;SDS011;11910;52.086;21.066;2024-02-26T09:58:38;19.70;;;17.23;;
23474;SDS011;11910;52.086;21.066;2024-02-26T10:01:09;17.88;;;15.65;;
23474;SDS011;11910;52.086;21.066;2024-02-26T10:06:09;18.00;;;16.00;;
23474;SDS011;11910;52.086;21.066;2024-02-26T10:08:35;17.15;;;15.35;;
23474;SDS011;11910;52.086;21.066;2024-02-26T10:11:02;16.98;;;15.05;;
23474;SDS011;11910;52.086;21.066;2024-02-26T10:13:29;16.73;;;15.02;;
23474;SDS011;11910;52.086;21.066;2024-02-26T10:15:55;16.00;;;14.30;;
23474;SDS011;11910;52.086;21.066;2024-02-26T10:18:22;14.55;;;13.05;;
23474;SDS011;11910;52.086;21.066;2024-02-26T10:20:59;16.00;;;14.40;;
23474;SDS011;11910;52.086;21.066;2024-02-26T10:23:26;16.42;;;14.38;;
23474;SDS011;11910;52.086;21.066;2024-02-26T10:25:55;15.25;;;13.65;;
23474;SDS011;11910;52.086;21.066;2024-02-26T10:28:21;16.35;;;14.63;;
23474;SDS011;11910;52.086;21.066;2024-02-26T10:30:47;16.20;;;13.40;;
23474;SDS011;11910;52.086;21.066;2024-02-26T10:33:13;15.02;;;13.43;;
23474;SDS011;11910;52.086;21.066;2024-02-26T10:35:39;15.20;;;13.05;;
23474;SDS011;11910;52.086;21.066;2024-02-26T10:38:10;14.10;;;12.60;;
23474;SDS011;11910;52.086;21.066;2024-02-26T10:40:36;13.98;;;12.48;;
23474;SDS011;11910;52.086;21.066;2024-02-26T10:43:02;12.70;;;11.40;;
23474;SDS011;11910;52.086;21.066;2024-02-26T10:45:28;12.85;;;11.30;;
23474;SDS011;11910;52.086;21.066;2024-02-26T10:47:54;14.50;;;11.45;;
23474;SDS011;11910;52.086;21.066;2024-02-26T10:50:19;11.70;;;10.23;;
23474;SDS011;11910;52.086;21.066;2024-02-26T10:52:45;12.07;;;9.82;;
23474;SDS011;11910;52.086;21.066;2024-02-26T10:55:14;10.63;;;9.52;;
23474;SDS011;11910;52.086;21.066;2024-02-26T10:57:43;10.10;;;9.07;;
23474;SDS011;11910;52.086;21.066;2024-02-26T11:00:10;11.98;;;9.45;;
23474;SDS011;11910;52.086;21.066;2024-02-26T11:02:40;10.50;;;9.50;;
23474;SDS011;11910;52.086;21.066;2024-02-26T11:05:07;9.63;;;8.50;;
23474;SDS011;11910;52.086;21.066;2024-02-26T11:07:36;10.32;;;9.27;;
23474;SDS011;11910;52.086;21.066;2024-02-26T11:10:05;11.00;;;9.75;;
23474;SDS011;11910;52.086;21.066;2024-02-26T11:12:32;10.68;;;7.70;;
23474;SDS011;11910;52.086;21.066;2024-02-26T11:15:00;7.07;;;6.03;;
23474;SDS011;11910;52.086;21.066;2024-02-26T11:17:27;6.70;;;5.90;;
23474;SDS011;11910;52.086;21.066;2024-02-26T11:19:56;5.93;;;5.32;;
23474;SDS011;11910;52.086;21.066;2024-02-26T11:22:23;6.10;;;5.38;;
23474;SDS011;11910;52.086;21.066;2024-02-26T11:24:55;5.55;;;4.80;;
23474;SDS011;11910;52.086;21.066;2024-02-26T11:27:56;5.57;;;5.00;;
23474;SDS011;11910;52.086;21.066;2024-02-26T11:30:16;5.95;;;4.95;;
23474;SDS011;11910;52.086;21.066;2024-02-26T11:32:46;6.22;;;5.10;;
23474;SDS011;11910;52.086;21.066;2024-02-26T11:35:13;7.80;;;5.80;;
23474;SDS011;11910;52.086;21.066;2024-02-26T11:37:41;6.28;;;5.70;;
23474;SDS011;11910;52.086;21.066;2024-02-26T11:40:21;5.60;;;5.05;;
23474;SDS011;11910;52.086;21.066;2024-02-26T11:42:51;5.43;;;4.82;;
23474;SDS011;11910;52.086;21.066;2024-02-26T11:48:11;8.70;;;5.50;;
23474;SDS011;11910;52.086;21.066;2024-02-26T11:50:48;5.47;;;4.97;;
23474;SDS011;11910;52.086;21.066;2024-02-26T11:55:47;4.60;;;4.20;;
23474;SDS011;11910;52.086;21.066;2024-02-26T11:58:33;4.60;;;4.07;;
23474;SDS011;11910;52.086;21.066;2024-02-26T12:00:59;6.28;;;4.43;;
23474;SDS011;11910;52.086;21.066;2024-02-26T12:03:25;4.93;;;4.43;;
23474;SDS011;11910;52.086;21.066;2024-02-26T12:05:51;7.03;;;5.38;;
23474;SDS011;11910;52.086;21.066;2024-02-26T12:08:17;7.88;;;4.65;;
23474;SDS011;11910;52.086;21.066;2024-02-26T12:10:46;6.13;;;5.20;;
23474;SDS011;11910;52.086;21.066;2024-02-26T12:13:14;6.53;;;4.45;;
23474;SDS011;11910;52.086;21.066;2024-02-26T12:15:44;6.90;;;4.43;;
23474;SDS011;11910;52.086;21.066;2024-02-26T12:18:30;5.13;;;4.50;;
23474;SDS011;11910;52.086;21.066;2024-02-26T12:21:00;8.07;;;4.28;;
23474;SDS011;11910;52.086;21.066;2024-02-26T12:23:29;6.03;;;5.00;;
23474;SDS011;11910;52.086;21.066;2024-02-26T12:25:58;6.20;;;4.28;;
23474;SDS011;11910;52.086;21.066;2024-02-26T12:28:31;5.72;;;4.10;;
23474;SDS011;11910;52.086;21.066;2024-02-26T12:30:56;3.88;;;3.58;;
23474;SDS011;11910;52.086;21.066;2024-02-26T12:33:24;4.40;;;3.08;;
23474;SDS011;11910;52.086;21.066;2024-02-26T12:35:54;5.43;;;3.50;;
23474;SDS011;11910;52.086;21.066;2024-02-26T12:38:22;5.38;;;3.83;;
23474;SDS011;11910;52.086;21.066;2024-02-26T12:40:48;4.68;;;3.50;;
23474;SDS011;11910;52.086;21.066;2024-02-26T12:43:14;5.15;;;3.40;;
23474;SDS011;11910;52.086;21.066;2024-02-26T12:45:40;4.47;;;3.60;;
23474;SDS011;11910;52.086;21.066;2024-02-26T12:48:11;3.65;;;3.13;;
23474;SDS011;11910;52.086;21.066;2024-02-26T12:50:37;3.00;;;2.70;;
23474;SDS011;11910;52.086;21.066;2024-02-26T12:53:03;4.50;;;3.50;;
23474;SDS011;11910;52.086;21.066;2024-02-26T12:55:30;4.15;;;2.83;;
23474;SDS011;11910;52.086;21.066;2024-02-26T12:57:59;4.13;;;3.47;;
23474;SDS011;11910;52.086;21.066;2024-02-26T13:00:26;4.43;;;3.35;;
23474;SDS011;11910;52.086;21.066;2024-02-26T13:02:53;2.88;;;2.67;;
23474;SDS011;11910;52.086;21.066;2024-02-26T13:05:20;3.63;;;2.92;;
23474;SDS011;11910;52.086;21.066;2024-02-26T13:07:47;3.10;;;2.80;;
23474;SDS011;11910;52.086;21.066;2024-02-26T13:10:13;3.13;;;2.88;;
23474;SDS011;11910;52.086;21.066;2024-02-26T13:12:46;4.30;;;3.00;;
23474;SDS011;11910;52.086;21.066;2024-02-26T13:15:21;4.53;;;2.97;;
23474;SDS011;11910;52.086;21.066;2024-02-26T13:17:47;4.35;;;3.20;;
23474;SDS011;11910;52.086;21.066;2024-02-26T13:20:24;4.70;;;3.00;;
23474;SDS011;11910;52.086;21.066;2024-02-26T13:22:59;5.50;;;3.03;;
23474;SDS011;11910;52.086;21.066;2024-02-26T13:25:31;3.78;;;3.17;;
23474;SDS011;11910;52.086;21.066;2024-02-26T13:28:16;5.47;;;3.10;;
23474;SDS011;11910;52.086;21.066;2024-02-26T13:30:52;3.30;;;2.85;;
23474;SDS011;11910;52.086;21.066;2024-02-26T13:33:22;6.20;;;3.00;;
23474;SDS011;11910;52.086;21.066;2024-02-26T13:35:49;3.30;;;3.00;;
23474;SDS011;11910;52.086;21.066;2024-02-26T13:38:15;3.20;;;2.90;;
23474;SDS011;11910;52.086;21.066;2024-02-26T13:40:41;4.70;;;3.22;;
23474;SDS011;11910;52.086;21.066;2024-02-26T13:43:06;4.30;;;3.30;;
23474;SDS011;11910;52.086;21.066;2024-02-26T13:45:36;5.03;;;3.58;;
23474;SDS011;11910;52.086;21.066;2024-02-26T13:48:03;5.25;;;3.30;;
23474;SDS011;11910;52.086;21.066;2024-02-26T13:50:30;5.28;;;3.60;;
23474;SDS011;11910;52.086;21.066;2024-02-26T13:52:56;5.60;;;3.33;;
23474;SDS011;11910;52.086;21.066;2024-02-26T13:55:23;5.00;;;3.50;;
23474;SDS011;11910;52.086;21.066;2024-02-26T13:57:51;5.57;;;3.92;;
23474;SDS011;11910;52.086;21.066;2024-02-26T14:00:19;5.28;;;3.67;;
23474;SDS011;11910;52.086;21.066;2024-02-26T14:02:45;5.85;;;3.60;;
23474;SDS011;11910;52.086;21.066;2024-02-26T14:05:11;3.75;;;3.45;;
23474;SDS011;11910;52.086;21.066;2024-02-26T14:07:37;6.65;;;3.90;;
23474;SDS011;11910;52.086;21.066;2024-02-26T14:10:02;4.15;;;3.60;;
23474;SDS011;11910;52.086;21.066;2024-02-26T14:12:28;5.20;;;3.53;;
23474;SDS011;11910;52.086;21.066;2024-02-26T14:14:54;6.95;;;3.80;;
23474;SDS011;11910;52.086;21.066;2024-02-26T14:17:21;5.10;;;3.40;;
23474;SDS011;11910;52.086;21.066;2024-02-26T14:19:47;4.20;;;3.60;;